Главная страница
METAR-TAF:

METAR-TAF

Аэропорты :

Нефтяная платформа

Norne Fpso, Норвегия

широта: 66-01-48N, долгота: 008-04-48E, высота над уровнем моря: 10 м

Текущие метеонаблюдения

Эта сводка был подготовлена 33 минут назад, в 07:50 UTC
Ветер 13 Узел от восточно-юго-восточный
Температура 4°C
Влажность 87%
Давление 1010 hPa
Видимость 10 км и более
Рассеянная облачность на высоте 1600 фута
небольшие ливневые дожди

METAR: ENNE 170750Z 11013KT 9999 -SHRA BKN016 04/02 Q1010 W///S3

Время: 09:23 (08:23 UTC)

Прогноз

Эта сводка был подготовлена 3 часа и 23 минут назад, в 05:00 UTC
Прогноз действительный с 17-го 07 UTC до 17-го 15 UTC
Ветер 15 Узел от восточный
Видимость 10 км и более
Отдельные облака на высоте 2000 фута
Рассеянная облачность на высоте 4000 фута
небольшой дождь

TAF: ENNE 170500Z 1707/1715 10015KT 9999 -RA SCT020 BKN040

Метеонаблюдения и прогнозы для более 4000 аэропортов (сводки METAR и TAF).

Имеющиеся станции представлены на карте желтыми и красными точками.

Чтобы увидеть название станции, наведите на нее мышь.

Затем щелкните, чтобы увидеть метеонаблюдения и метеопрогнозы.

Управление картой: чтобы увеличить масштаб, щелкните зеленые кнопки с черным крестиком; чтобы уменьшить масштаб, щелкните зеленую кнопку с тире; для просмотра соседних карт щелкайте зеленые стрелки.


METAR-TAF: